Darco, Texas
Current Conditions -  °F | °C
As of 11:55 AM on Wednesday 28 Jan 2015 (Local Time) from KASL Reporting Station
Clear Clear  
Wind Chill: 73°   Ceiling: Unl
Heat Index: 73°   Visibility: NA
Dew Point: 45°   Wind: 12mph
Humidity: 36%   Direction: 190°S
Pressure: 30.19"   Gusts: NA
Location:  32.4675°N, 94.3321°W
Report Text: KASL 281755Z AUTO 19010KT CLR 23/07 A3019 RMK AO1 T02300072 10230 20041
Loading
Personal Weather Stations






























Interactive Weather Map New forecast layout! Learn more

10-Day Weather Forecast

Advertisements
Track Severe Weather on mobile